This is the latest recevied weather packets stored in our database for station/object KI5NXU. If no packets are shown the sender has not sent any weather packets the latest 10 day(s).
| Time | Temp. | Humidity | Pressure | Rain* | Wind** | Luminosity | Snow |
|---|---|---|---|---|---|---|---|
| 1777832504 | 26.67° C | 34% | 1018.7 hPa | 0 mm | - | 720 W/m² | - |
| 1777831897 | 25.56° C | 37% | 1018.8 hPa | 0 mm | - | 746 W/m² | - |
| 1777830686 | 25.56° C | 41% | 1019 hPa | 0 mm | - | 738 W/m² | - |
| 1777828866 | 25° C | 44% | 1019.4 hPa | 0 mm | - | 770 W/m² | - |
| 1777827653 | 24.44° C | 46% | 1019.7 hPa | 0 mm | - | 794 W/m² | - |
| 1777824015 | 23.33° C | 51% | 1020.4 hPa | 0 mm | - | 781 W/m² | - |
| 1777823409 | 22.78° C | 50% | 1020.4 hPa | 0 mm | - | 753 W/m² | - |
| 1777817351 | 18.89° C | 65% | 1020.5 hPa | 0 mm | - | 271 W/m² | - |
| 1777815534 | 16.67° C | 71% | 1020.2 hPa | 0 mm | - | 188 W/m² | - |
| 1777812504 | 15° C | 76% | 1019.7 hPa | 0 mm | - | 48 W/m² | - |
| 1777811900 | 14.44° C | 77% | 1019.8 hPa | 0 mm | - | 30 W/m² | - |
| 1777811599 | 14.44° C | 77% | 1019.8 hPa | 0 mm | - | 28 W/m² | - |
| 1777811293 | 13.89° C | 78% | 1019.6 hPa | 0 mm | - | 26 W/m² | - |
| 1777810688 | 13.89° C | 77% | 1019.6 hPa | 0 mm | - | 23 W/m² | - |
| 1777810385 | 14.44° C | 76% | 1019.4 hPa | 0 mm | - | 17 W/m² | - |
| 1777808264 | 14.44° C | 75% | 1019.3 hPa | 0 mm | - | 0 W/m² | - |
| 1777807053 | 14.44° C | 76% | 1019 hPa | 0 mm | - | 0 W/m² | - |
| 1777806751 | 14.44° C | 75% | 1018.9 hPa | 0 mm | - | 0 W/m² | - |
| 1777806446 | 14.44° C | 75% | 1018.9 hPa | 0 mm | - | 0 W/m² | - |
| 1777805840 | 15° C | 74% | 1018.8 hPa | 0 mm | - | 0 W/m² | - |
| 1777805537 | 15° C | 73% | 1019 hPa | 0 mm | - | 0 W/m² | - |
| 1777804630 | 15° C | 73% | 1018.9 hPa | 0 mm | - | 0 W/m² | - |
| 1777804328 | 15° C | 73% | 1018.7 hPa | 0 mm | - | 0 W/m² | - |
| 1777804024 | 15° C | 72% | 1018.6 hPa | 0 mm | - | 0 W/m² | - |
| 1777803721 | 15.56° C | 71% | 1018.9 hPa | 0 mm | - | 0 W/m² | - |
* Rain latest hour (hover to see other rain measurements)
** Current wind speed in m/s (hover to see current wind gust speed)